sensor_id;sensor_type;location;lat;lon;timestamp;P1;durP1;ratioP1;P2;durP2;ratioP2
66478;SDS011;53294;47.912;13.526;2023-04-25T00:00:52;3.50;;;2.00;;
66478;SDS011;53294;47.912;13.526;2023-04-25T00:03:19;4.00;;;2.28;;
66478;SDS011;53294;47.912;13.526;2023-04-25T00:05:47;2.88;;;1.90;;
66478;SDS011;53294;47.912;13.526;2023-04-25T00:08:15;4.55;;;3.00;;
66478;SDS011;53294;47.912;13.526;2023-04-25T00:10:41;4.85;;;2.63;;
66478;SDS011;53294;47.912;13.526;2023-04-25T00:13:08;4.45;;;2.60;;
66478;SDS011;53294;47.912;13.526;2023-04-25T00:15:37;3.58;;;2.30;;
66478;SDS011;53294;47.912;13.526;2023-04-25T00:18:05;3.15;;;2.05;;
66478;SDS011;53294;47.912;13.526;2023-04-25T00:20:32;3.92;;;2.05;;
66478;SDS011;53294;47.912;13.526;2023-04-25T00:22:59;5.22;;;2.40;;
66478;SDS011;53294;47.912;13.526;2023-04-25T00:25:25;4.63;;;2.17;;
66478;SDS011;53294;47.912;13.526;2023-04-25T00:27:52;5.13;;;2.35;;
66478;SDS011;53294;47.912;13.526;2023-04-25T00:30:19;3.42;;;2.20;;
66478;SDS011;53294;47.912;13.526;2023-04-25T00:32:46;4.03;;;1.92;;
66478;SDS011;53294;47.912;13.526;2023-04-25T00:35:12;4.05;;;2.25;;
66478;SDS011;53294;47.912;13.526;2023-04-25T00:37:39;4.28;;;2.50;;
66478;SDS011;53294;47.912;13.526;2023-04-25T00:40:06;4.35;;;2.65;;
66478;SDS011;53294;47.912;13.526;2023-04-25T00:42:34;3.30;;;2.17;;
66478;SDS011;53294;47.912;13.526;2023-04-25T00:45:02;3.67;;;2.03;;
66478;SDS011;53294;47.912;13.526;2023-04-25T00:47:31;4.60;;;2.33;;
66478;SDS011;53294;47.912;13.526;2023-04-25T00:49:59;5.07;;;2.78;;
66478;SDS011;53294;47.912;13.526;2023-04-25T00:52:26;4.45;;;2.03;;
66478;SDS011;53294;47.912;13.526;2023-04-25T00:54:53;6.75;;;2.42;;
66478;SDS011;53294;47.912;13.526;2023-04-25T00:57:19;5.47;;;2.65;;
66478;SDS011;53294;47.912;13.526;2023-04-25T00:59:46;3.17;;;1.90;;
66478;SDS011;53294;47.912;13.526;2023-04-25T01:02:13;5.57;;;2.65;;
66478;SDS011;53294;47.912;13.526;2023-04-25T01:04:40;4.20;;;2.20;;
66478;SDS011;53294;47.912;13.526;2023-04-25T01:07:06;2.42;;;1.95;;
66478;SDS011;53294;47.912;13.526;2023-04-25T01:09:33;3.42;;;1.67;;
66478;SDS011;53294;47.912;13.526;2023-04-25T01:12:00;4.20;;;2.20;;
66478;SDS011;53294;47.912;13.526;2023-04-25T01:14:27;4.05;;;2.10;;
66478;SDS011;53294;47.912;13.526;2023-04-25T01:16:54;3.72;;;2.08;;
66478;SDS011;53294;47.912;13.526;2023-04-25T01:19:20;3.28;;;2.08;;
66478;SDS011;53294;47.912;13.526;2023-04-25T01:21:47;2.65;;;1.80;;
66478;SDS011;53294;47.912;13.526;2023-04-25T01:24:14;2.60;;;1.88;;
66478;SDS011;53294;47.912;13.526;2023-04-25T01:26:42;3.67;;;2.00;;
66478;SDS011;53294;47.912;13.526;2023-04-25T01:29:17;3.67;;;2.40;;
66478;SDS011;53294;47.912;13.526;2023-04-25T01:31:44;2.20;;;1.65;;
66478;SDS011;53294;47.912;13.526;2023-04-25T01:34:12;6.28;;;2.20;;
66478;SDS011;53294;47.912;13.526;2023-04-25T01:36:39;3.60;;;2.00;;
66478;SDS011;53294;47.912;13.526;2023-04-25T01:39:06;4.88;;;2.30;;
66478;SDS011;53294;47.912;13.526;2023-04-25T01:41:33;4.40;;;2.05;;
66478;SDS011;53294;47.912;13.526;2023-04-25T01:44:03;3.92;;;2.20;;
66478;SDS011;53294;47.912;13.526;2023-04-25T01:46:30;4.30;;;1.90;;
66478;SDS011;53294;47.912;13.526;2023-04-25T01:48:57;2.70;;;1.90;;
66478;SDS011;53294;47.912;13.526;2023-04-25T01:51:24;4.95;;;1.88;;
66478;SDS011;53294;47.912;13.526;2023-04-25T01:53:50;6.18;;;2.03;;
66478;SDS011;53294;47.912;13.526;2023-04-25T01:56:18;3.28;;;1.70;;
66478;SDS011;53294;47.912;13.526;2023-04-25T01:58:45;2.22;;;1.80;;
66478;SDS011;53294;47.912;13.526;2023-04-25T02:01:12;3.03;;;1.90;;
66478;SDS011;53294;47.912;13.526;2023-04-25T02:03:38;2.83;;;1.98;;
66478;SDS011;53294;47.912;13.526;2023-04-25T02:06:05;4.00;;;2.00;;
66478;SDS011;53294;47.912;13.526;2023-04-25T02:08:32;3.97;;;2.50;;
66478;SDS011;53294;47.912;13.526;2023-04-25T02:10:59;2.35;;;1.70;;
66478;SDS011;53294;47.912;13.526;2023-04-25T02:13:26;2.72;;;1.80;;
66478;SDS011;53294;47.912;13.526;2023-04-25T02:15:53;2.67;;;1.98;;
66478;SDS011;53294;47.912;13.526;2023-04-25T02:18:19;2.40;;;1.70;;
66478;SDS011;53294;47.912;13.526;2023-04-25T02:20:47;2.95;;;1.80;;
66478;SDS011;53294;47.912;13.526;2023-04-25T02:23:14;3.00;;;1.80;;
66478;SDS011;53294;47.912;13.526;2023-04-25T02:25:41;4.00;;;1.83;;
66478;SDS011;53294;47.912;13.526;2023-04-25T02:28:08;2.63;;;1.85;;
66478;SDS011;53294;47.912;13.526;2023-04-25T02:30:35;2.83;;;1.80;;
66478;SDS011;53294;47.912;13.526;2023-04-25T02:33:02;3.30;;;2.15;;
66478;SDS011;53294;47.912;13.526;2023-04-25T02:35:29;3.10;;;1.98;;
66478;SDS011;53294;47.912;13.526;2023-04-25T02:37:55;4.10;;;2.10;;
66478;SDS011;53294;47.912;13.526;2023-04-25T02:40:22;3.33;;;1.92;;
66478;SDS011;53294;47.912;13.526;2023-04-25T02:42:49;3.05;;;1.98;;
66478;SDS011;53294;47.912;13.526;2023-04-25T02:45:15;2.50;;;1.83;;
66478;SDS011;53294;47.912;13.526;2023-04-25T02:47:42;3.50;;;2.22;;
66478;SDS011;53294;47.912;13.526;2023-04-25T02:50:10;3.22;;;1.55;;
66478;SDS011;53294;47.912;13.526;2023-04-25T02:52:37;2.95;;;1.90;;
66478;SDS011;53294;47.912;13.526;2023-04-25T02:55:04;3.88;;;1.98;;
66478;SDS011;53294;47.912;13.526;2023-04-25T02:57:31;3.25;;;2.13;;
66478;SDS011;53294;47.912;13.526;2023-04-25T02:59:58;4.32;;;1.95;;
66478;SDS011;53294;47.912;13.526;2023-04-25T03:02:24;4.00;;;2.20;;
66478;SDS011;53294;47.912;13.526;2023-04-25T03:04:51;4.63;;;2.10;;
66478;SDS011;53294;47.912;13.526;2023-04-25T03:07:18;2.90;;;1.85;;
66478;SDS011;53294;47.912;13.526;2023-04-25T03:09:45;3.72;;;1.83;;
66478;SDS011;53294;47.912;13.526;2023-04-25T03:12:12;2.72;;;1.80;;
66478;SDS011;53294;47.912;13.526;2023-04-25T03:14:39;4.47;;;2.30;;
66478;SDS011;53294;47.912;13.526;2023-04-25T03:17:05;3.03;;;1.92;;
66478;SDS011;53294;47.912;13.526;2023-04-25T03:19:32;3.17;;;2.10;;
66478;SDS011;53294;47.912;13.526;2023-04-25T03:21:58;3.00;;;2.00;;
66478;SDS011;53294;47.912;13.526;2023-04-25T03:24:25;3.88;;;1.80;;
66478;SDS011;53294;47.912;13.526;2023-04-25T03:26:53;3.42;;;2.08;;
66478;SDS011;53294;47.912;13.526;2023-04-25T03:29:20;3.20;;;1.70;;
66478;SDS011;53294;47.912;13.526;2023-04-25T03:31:50;3.25;;;1.90;;
66478;SDS011;53294;47.912;13.526;2023-04-25T03:34:17;2.83;;;1.70;;
66478;SDS011;53294;47.912;13.526;2023-04-25T03:36:44;4.05;;;2.05;;
66478;SDS011;53294;47.912;13.526;2023-04-25T03:39:11;4.53;;;1.80;;
66478;SDS011;53294;47.912;13.526;2023-04-25T03:41:37;4.00;;;1.90;;
66478;SDS011;53294;47.912;13.526;2023-04-25T03:44:04;2.90;;;1.80;;
66478;SDS011;53294;47.912;13.526;2023-04-25T03:46:31;4.32;;;1.90;;
66478;SDS011;53294;47.912;13.526;2023-04-25T03:48:58;3.78;;;1.90;;
66478;SDS011;53294;47.912;13.526;2023-04-25T03:51:25;2.58;;;1.85;;
66478;SDS011;53294;47.912;13.526;2023-04-25T03:53:52;4.30;;;3.08;;
66478;SDS011;53294;47.912;13.526;2023-04-25T03:56:19;6.80;;;5.55;;
66478;SDS011;53294;47.912;13.526;2023-04-25T03:58:46;10.05;;;9.13;;
66478;SDS011;53294;47.912;13.526;2023-04-25T04:01:13;5.82;;;3.50;;
66478;SDS011;53294;47.912;13.526;2023-04-25T04:03:39;4.38;;;2.25;;
66478;SDS011;53294;47.912;13.526;2023-04-25T04:06:07;4.25;;;2.13;;
66478;SDS011;53294;47.912;13.526;2023-04-25T04:08:35;2.58;;;1.80;;
66478;SDS011;53294;47.912;13.526;2023-04-25T04:11:01;3.78;;;2.10;;
66478;SDS011;53294;47.912;13.526;2023-04-25T04:13:28;3.50;;;2.17;;
66478;SDS011;53294;47.912;13.526;2023-04-25T04:15:56;2.92;;;2.00;;
66478;SDS011;53294;47.912;13.526;2023-04-25T04:18:23;4.10;;;2.00;;
66478;SDS011;53294;47.912;13.526;2023-04-25T04:20:50;3.72;;;2.40;;
66478;SDS011;53294;47.912;13.526;2023-04-25T04:23:17;4.32;;;3.22;;
66478;SDS011;53294;47.912;13.526;2023-04-25T04:25:43;4.80;;;2.67;;
66478;SDS011;53294;47.912;13.526;2023-04-25T04:28:10;11.35;;;2.80;;
66478;SDS011;53294;47.912;13.526;2023-04-25T04:30:37;4.95;;;2.20;;
66478;SDS011;53294;47.912;13.526;2023-04-25T04:33:05;2.83;;;1.90;;
66478;SDS011;53294;47.912;13.526;2023-04-25T04:35:32;3.00;;;1.63;;
66478;SDS011;53294;47.912;13.526;2023-04-25T04:37:59;3.72;;;1.95;;
66478;SDS011;53294;47.912;13.526;2023-04-25T04:40:26;2.55;;;1.70;;
66478;SDS011;53294;47.912;13.526;2023-04-25T04:42:53;3.38;;;1.95;;
66478;SDS011;53294;47.912;13.526;2023-04-25T04:45:23;4.45;;;2.60;;
66478;SDS011;53294;47.912;13.526;2023-04-25T04:47:49;3.67;;;2.20;;
66478;SDS011;53294;47.912;13.526;2023-04-25T04:50:16;4.05;;;2.20;;
66478;SDS011;53294;47.912;13.526;2023-04-25T04:52:43;3.00;;;1.90;;
66478;SDS011;53294;47.912;13.526;2023-04-25T04:55:09;3.22;;;1.90;;
66478;SDS011;53294;47.912;13.526;2023-04-25T04:57:36;3.83;;;1.92;;
66478;SDS011;53294;47.912;13.526;2023-04-25T05:00:05;4.95;;;2.65;;
66478;SDS011;53294;47.912;13.526;2023-04-25T05:02:37;3.40;;;2.50;;
66478;SDS011;53294;47.912;13.526;2023-04-25T05:05:05;3.03;;;1.92;;
66478;SDS011;53294;47.912;13.526;2023-04-25T05:07:32;4.07;;;2.03;;
66478;SDS011;53294;47.912;13.526;2023-04-25T05:09:58;4.68;;;1.92;;
66478;SDS011;53294;47.912;13.526;2023-04-25T05:12:25;3.78;;;1.80;;
66478;SDS011;53294;47.912;13.526;2023-04-25T05:14:52;2.58;;;1.80;;
66478;SDS011;53294;47.912;13.526;2023-04-25T05:17:18;2.63;;;1.85;;
66478;SDS011;53294;47.912;13.526;2023-04-25T05:19:45;3.10;;;1.90;;
66478;SDS011;53294;47.912;13.526;2023-04-25T05:22:12;4.88;;;1.95;;
66478;SDS011;53294;47.912;13.526;2023-04-25T05:24:38;3.67;;;1.95;;
66478;SDS011;53294;47.912;13.526;2023-04-25T05:27:05;2.88;;;1.67;;
66478;SDS011;53294;47.912;13.526;2023-04-25T05:29:32;2.17;;;1.55;;
66478;SDS011;53294;47.912;13.526;2023-04-25T05:31:59;3.00;;;1.70;;
66478;SDS011;53294;47.912;13.526;2023-04-25T05:34:26;3.50;;;1.75;;
66478;SDS011;53294;47.912;13.526;2023-04-25T05:36:53;3.58;;;1.70;;
66478;SDS011;53294;47.912;13.526;2023-04-25T05:39:19;3.58;;;2.20;;
66478;SDS011;53294;47.912;13.526;2023-04-25T05:41:46;3.35;;;1.80;;
66478;SDS011;53294;47.912;13.526;2023-04-25T05:44:13;2.92;;;2.17;;
66478;SDS011;53294;47.912;13.526;2023-04-25T05:46:42;3.33;;;1.92;;
66478;SDS011;53294;47.912;13.526;2023-04-25T05:49:09;4.07;;;1.85;;
66478;SDS011;53294;47.912;13.526;2023-04-25T05:51:35;2.58;;;1.60;;
66478;SDS011;53294;47.912;13.526;2023-04-25T05:54:02;3.40;;;2.10;;
66478;SDS011;53294;47.912;13.526;2023-04-25T05:56:29;3.25;;;2.00;;
66478;SDS011;53294;47.912;13.526;2023-04-25T05:58:56;4.03;;;2.20;;
66478;SDS011;53294;47.912;13.526;2023-04-25T06:01:22;3.22;;;1.92;;
66478;SDS011;53294;47.912;13.526;2023-04-25T06:03:49;4.15;;;2.30;;
66478;SDS011;53294;47.912;13.526;2023-04-25T06:06:18;4.28;;;2.50;;
66478;SDS011;53294;47.912;13.526;2023-04-25T06:08:45;3.92;;;2.10;;
66478;SDS011;53294;47.912;13.526;2023-04-25T06:11:12;4.82;;;3.22;;
66478;SDS011;53294;47.912;13.526;2023-04-25T06:13:38;5.45;;;3.30;;
66478;SDS011;53294;47.912;13.526;2023-04-25T06:16:05;4.40;;;3.25;;
66478;SDS011;53294;47.912;13.526;2023-04-25T06:18:32;5.65;;;4.40;;
66478;SDS011;53294;47.912;13.526;2023-04-25T06:20:59;5.22;;;3.17;;
66478;SDS011;53294;47.912;13.526;2023-04-25T06:23:25;5.70;;;3.15;;
66478;SDS011;53294;47.912;13.526;2023-04-25T06:25:52;6.65;;;3.72;;
66478;SDS011;53294;47.912;13.526;2023-04-25T06:28:19;4.38;;;2.70;;
66478;SDS011;53294;47.912;13.526;2023-04-25T06:30:48;4.43;;;2.97;;
66478;SDS011;53294;47.912;13.526;2023-04-25T06:33:14;4.50;;;3.13;;
66478;SDS011;53294;47.912;13.526;2023-04-25T06:35:41;4.40;;;2.97;;
66478;SDS011;53294;47.912;13.526;2023-04-25T06:38:08;5.78;;;2.80;;
66478;SDS011;53294;47.912;13.526;2023-04-25T06:40:35;3.67;;;2.58;;
66478;SDS011;53294;47.912;13.526;2023-04-25T06:43:02;5.03;;;2.65;;
66478;SDS011;53294;47.912;13.526;2023-04-25T06:45:28;4.80;;;2.40;;
66478;SDS011;53294;47.912;13.526;2023-04-25T06:47:55;5.53;;;2.20;;
66478;SDS011;53294;47.912;13.526;2023-04-25T06:50:22;4.82;;;2.72;;
66478;SDS011;53294;47.912;13.526;2023-04-25T06:52:48;5.22;;;3.03;;
66478;SDS011;53294;47.912;13.526;2023-04-25T06:55:15;5.88;;;2.53;;
66478;SDS011;53294;47.912;13.526;2023-04-25T06:57:42;4.90;;;2.85;;
66478;SDS011;53294;47.912;13.526;2023-04-25T07:00:08;3.83;;;2.28;;
66478;SDS011;53294;47.912;13.526;2023-04-25T07:02:35;4.85;;;2.50;;
66478;SDS011;53294;47.912;13.526;2023-04-25T07:05:03;5.45;;;2.63;;
66478;SDS011;53294;47.912;13.526;2023-04-25T07:07:30;4.70;;;2.75;;
66478;SDS011;53294;47.912;13.526;2023-04-25T07:09:57;8.15;;;3.15;;
66478;SDS011;53294;47.912;13.526;2023-04-25T07:12:24;5.97;;;2.65;;
66478;SDS011;53294;47.912;13.526;2023-04-25T07:14:50;4.60;;;2.28;;
66478;SDS011;53294;47.912;13.526;2023-04-25T07:17:17;3.22;;;2.33;;
66478;SDS011;53294;47.912;13.526;2023-04-25T07:19:43;4.13;;;2.30;;
66478;SDS011;53294;47.912;13.526;2023-04-25T07:22:11;4.53;;;2.58;;
66478;SDS011;53294;47.912;13.526;2023-04-25T07:24:37;4.22;;;2.17;;
66478;SDS011;53294;47.912;13.526;2023-04-25T07:27:04;6.03;;;2.20;;
66478;SDS011;53294;47.912;13.526;2023-04-25T07:29:31;4.20;;;2.22;;
66478;SDS011;53294;47.912;13.526;2023-04-25T07:31:58;4.57;;;2.20;;
66478;SDS011;53294;47.912;13.526;2023-04-25T07:34:24;5.80;;;2.03;;
66478;SDS011;53294;47.912;13.526;2023-04-25T07:36:51;4.72;;;2.20;;
66478;SDS011;53294;47.912;13.526;2023-04-25T07:39:18;5.93;;;2.42;;
66478;SDS011;53294;47.912;13.526;2023-04-25T07:41:45;3.83;;;1.88;;
66478;SDS011;53294;47.912;13.526;2023-04-25T07:44:12;4.55;;;2.85;;
66478;SDS011;53294;47.912;13.526;2023-04-25T07:46:38;4.53;;;2.03;;
66478;SDS011;53294;47.912;13.526;2023-04-25T07:49:05;6.70;;;2.20;;
66478;SDS011;53294;47.912;13.526;2023-04-25T07:51:32;3.90;;;1.88;;
66478;SDS011;53294;47.912;13.526;2023-04-25T07:53:58;6.53;;;2.03;;
66478;SDS011;53294;47.912;13.526;2023-04-25T07:56:25;3.03;;;1.70;;
66478;SDS011;53294;47.912;13.526;2023-04-25T07:58:52;4.47;;;2.08;;
66478;SDS011;53294;47.912;13.526;2023-04-25T08:01:19;8.68;;;2.40;;
66478;SDS011;53294;47.912;13.526;2023-04-25T08:03:47;3.67;;;1.90;;
66478;SDS011;53294;47.912;13.526;2023-04-25T08:06:15;5.78;;;2.35;;
66478;SDS011;53294;47.912;13.526;2023-04-25T08:08:41;4.40;;;2.20;;
66478;SDS011;53294;47.912;13.526;2023-04-25T08:11:08;5.53;;;2.08;;
66478;SDS011;53294;47.912;13.526;2023-04-25T08:13:35;4.70;;;2.40;;
66478;SDS011;53294;47.912;13.526;2023-04-25T08:16:01;4.45;;;2.15;;
66478;SDS011;53294;47.912;13.526;2023-04-25T08:18:28;4.05;;;2.00;;
66478;SDS011;53294;47.912;13.526;2023-04-25T08:20:55;5.32;;;2.00;;
66478;SDS011;53294;47.912;13.526;2023-04-25T08:23:22;4.43;;;1.90;;
66478;SDS011;53294;47.912;13.526;2023-04-25T08:25:49;4.03;;;2.25;;
66478;SDS011;53294;47.912;13.526;2023-04-25T08:28:15;5.78;;;2.10;;
66478;SDS011;53294;47.912;13.526;2023-04-25T08:30:42;3.40;;;1.98;;
66478;SDS011;53294;47.912;13.526;2023-04-25T08:33:09;3.30;;;1.70;;
66478;SDS011;53294;47.912;13.526;2023-04-25T08:35:37;4.47;;;1.90;;
66478;SDS011;53294;47.912;13.526;2023-04-25T08:38:04;4.22;;;1.90;;
66478;SDS011;53294;47.912;13.526;2023-04-25T08:40:30;4.03;;;1.85;;
66478;SDS011;53294;47.912;13.526;2023-04-25T08:43:03;3.85;;;2.00;;
66478;SDS011;53294;47.912;13.526;2023-04-25T08:45:32;5.65;;;2.08;;
66478;SDS011;53294;47.912;13.526;2023-04-25T08:47:59;4.35;;;2.30;;
66478;SDS011;53294;47.912;13.526;2023-04-25T08:50:28;3.25;;;1.70;;
66478;SDS011;53294;47.912;13.526;2023-04-25T08:52:56;2.75;;;1.73;;
66478;SDS011;53294;47.912;13.526;2023-04-25T08:55:30;2.90;;;1.80;;
66478;SDS011;53294;47.912;13.526;2023-04-25T08:57:57;6.28;;;2.05;;
66478;SDS011;53294;47.912;13.526;2023-04-25T09:00:26;4.65;;;2.00;;
66478;SDS011;53294;47.912;13.526;2023-04-25T09:02:54;2.35;;;1.75;;
66478;SDS011;53294;47.912;13.526;2023-04-25T09:05:21;3.97;;;1.90;;
66478;SDS011;53294;47.912;13.526;2023-04-25T09:07:49;3.90;;;1.75;;
66478;SDS011;53294;47.912;13.526;2023-04-25T09:10:16;4.97;;;2.42;;
66478;SDS011;53294;47.912;13.526;2023-04-25T09:12:42;4.70;;;2.17;;
66478;SDS011;53294;47.912;13.526;2023-04-25T09:15:10;5.20;;;2.65;;
66478;SDS011;53294;47.912;13.526;2023-04-25T09:17:46;3.58;;;2.10;;
66478;SDS011;53294;47.912;13.526;2023-04-25T09:20:21;5.50;;;2.00;;
66478;SDS011;53294;47.912;13.526;2023-04-25T09:22:48;3.55;;;1.77;;
66478;SDS011;53294;47.912;13.526;2023-04-25T09:25:14;4.55;;;2.33;;
66478;SDS011;53294;47.912;13.526;2023-04-25T09:27:51;4.50;;;2.25;;
66478;SDS011;53294;47.912;13.526;2023-04-25T09:30:28;3.10;;;1.90;;
66478;SDS011;53294;47.912;13.526;2023-04-25T09:32:57;3.80;;;1.98;;
66478;SDS011;53294;47.912;13.526;2023-04-25T09:35:30;2.53;;;1.65;;
66478;SDS011;53294;47.912;13.526;2023-04-25T09:38:09;4.15;;;1.83;;
66478;SDS011;53294;47.912;13.526;2023-04-25T09:40:43;4.00;;;2.13;;
66478;SDS011;53294;47.912;13.526;2023-04-25T09:43:23;2.78;;;1.40;;
66478;SDS011;53294;47.912;13.526;2023-04-25T09:45:51;4.47;;;1.77;;
66478;SDS011;53294;47.912;13.526;2023-04-25T09:48:24;4.32;;;1.55;;
66478;SDS011;53294;47.912;13.526;2023-04-25T09:51:04;2.60;;;1.55;;
66478;SDS011;53294;47.912;13.526;2023-04-25T09:53:35;4.88;;;1.95;;
66478;SDS011;53294;47.912;13.526;2023-04-25T09:56:05;2.28;;;1.70;;
66478;SDS011;53294;47.912;13.526;2023-04-25T09:58:34;3.35;;;1.80;;
66478;SDS011;53294;47.912;13.526;2023-04-25T10:01:05;5.03;;;1.80;;
66478;SDS011;53294;47.912;13.526;2023-04-25T10:03:38;5.15;;;1.77;;
66478;SDS011;53294;47.912;13.526;2023-04-25T10:06:14;4.13;;;1.88;;
66478;SDS011;53294;47.912;13.526;2023-04-25T10:08:45;4.03;;;1.85;;
66478;SDS011;53294;47.912;13.526;2023-04-25T10:11:17;2.65;;;1.60;;
66478;SDS011;53294;47.912;13.526;2023-04-25T10:13:44;3.55;;;1.60;;
66478;SDS011;53294;47.912;13.526;2023-04-25T10:16:12;2.55;;;1.50;;
66478;SDS011;53294;47.912;13.526;2023-04-25T10:18:39;4.35;;;1.50;;
66478;SDS011;53294;47.912;13.526;2023-04-25T10:21:06;3.33;;;1.60;;
66478;SDS011;53294;47.912;13.526;2023-04-25T10:23:33;3.90;;;1.80;;
66478;SDS011;53294;47.912;13.526;2023-04-25T10:26:01;2.83;;;1.80;;
66478;SDS011;53294;47.912;13.526;2023-04-25T10:28:28;3.70;;;1.85;;
66478;SDS011;53294;47.912;13.526;2023-04-25T10:33:37;4.03;;;1.90;;
66478;SDS011;53294;47.912;13.526;2023-04-25T10:38:44;3.22;;;1.48;;
66478;SDS011;53294;47.912;13.526;2023-04-25T10:41:12;2.40;;;1.67;;
66478;SDS011;53294;47.912;13.526;2023-04-25T10:43:40;4.47;;;1.85;;
66478;SDS011;53294;47.912;13.526;2023-04-25T10:46:24;3.67;;;1.83;;
66478;SDS011;53294;47.912;13.526;2023-04-25T10:48:56;2.72;;;1.60;;
66478;SDS011;53294;47.912;13.526;2023-04-25T10:54:18;3.33;;;1.77;;
66478;SDS011;53294;47.912;13.526;2023-04-25T10:56:48;2.78;;;1.90;;
66478;SDS011;53294;47.912;13.526;2023-04-25T10:59:16;4.38;;;1.73;;
66478;SDS011;53294;47.912;13.526;2023-04-25T11:01:45;3.47;;;1.90;;
66478;SDS011;53294;47.912;13.526;2023-04-25T11:04:22;2.10;;;1.40;;
66478;SDS011;53294;47.912;13.526;2023-04-25T11:09:32;2.00;;;1.52;;
66478;SDS011;53294;47.912;13.526;2023-04-25T11:12:04;2.80;;;1.90;;
66478;SDS011;53294;47.912;13.526;2023-04-25T11:14:31;3.30;;;2.00;;
66478;SDS011;53294;47.912;13.526;2023-04-25T11:16:58;3.65;;;1.60;;
66478;SDS011;53294;47.912;13.526;2023-04-25T11:19:26;3.17;;;1.67;;
66478;SDS011;53294;47.912;13.526;2023-04-25T11:21:54;3.00;;;1.70;;
66478;SDS011;53294;47.912;13.526;2023-04-25T11:24:29;2.42;;;1.60;;
66478;SDS011;53294;47.912;13.526;2023-04-25T11:26:57;4.05;;;1.70;;
66478;SDS011;53294;47.912;13.526;2023-04-25T11:29:31;3.88;;;1.88;;
66478;SDS011;53294;47.912;13.526;2023-04-25T11:31:59;2.40;;;1.30;;
66478;SDS011;53294;47.912;13.526;2023-04-25T11:34:28;3.25;;;1.48;;
66478;SDS011;53294;47.912;13.526;2023-04-25T11:37:02;2.67;;;1.55;;
66478;SDS011;53294;47.912;13.526;2023-04-25T11:39:30;1.48;;;1.20;;
66478;SDS011;53294;47.912;13.526;2023-04-25T11:41:57;2.60;;;1.20;;
66478;SDS011;53294;47.912;13.526;2023-04-25T11:44:26;1.73;;;1.40;;
66478;SDS011;53294;47.912;13.526;2023-04-25T11:46:53;2.88;;;1.30;;
66478;SDS011;53294;47.912;13.526;2023-04-25T11:49:19;3.60;;;1.50;;
66478;SDS011;53294;47.912;13.526;2023-04-25T11:51:47;2.70;;;1.30;;
66478;SDS011;53294;47.912;13.526;2023-04-25T11:54:15;1.58;;;1.08;;
66478;SDS011;53294;47.912;13.526;2023-04-25T11:56:42;2.45;;;1.35;;
66478;SDS011;53294;47.912;13.526;2023-04-25T11:59:12;2.75;;;1.15;;
66478;SDS011;53294;47.912;13.526;2023-04-25T12:01:46;1.88;;;1.25;;
66478;SDS011;53294;47.912;13.526;2023-04-25T12:06:44;1.80;;;1.25;;
66478;SDS011;53294;47.912;13.526;2023-04-25T12:09:16;2.50;;;1.13;;
66478;SDS011;53294;47.912;13.526;2023-04-25T12:11:54;2.63;;;1.48;;
66478;SDS011;53294;47.912;13.526;2023-04-25T12:14:22;2.05;;;1.25;;
66478;SDS011;53294;47.912;13.526;2023-04-25T12:16:50;3.63;;;1.60;;
66478;SDS011;53294;47.912;13.526;2023-04-25T12:19:19;3.53;;;1.50;;
66478;SDS011;53294;47.912;13.526;2023-04-25T12:21:47;3.83;;;1.60;;
66478;SDS011;53294;47.912;13.526;2023-04-25T12:24:26;3.47;;;1.60;;
66478;SDS011;53294;47.912;13.526;2023-04-25T12:27:04;1.80;;;1.20;;
66478;SDS011;53294;47.912;13.526;2023-04-25T12:29:32;2.45;;;1.50;;
66478;SDS011;53294;47.912;13.526;2023-04-25T12:32:14;1.77;;;1.10;;
66478;SDS011;53294;47.912;13.526;2023-04-25T12:34:42;2.53;;;1.75;;
66478;SDS011;53294;47.912;13.526;2023-04-25T12:37:08;6.65;;;2.17;;
66478;SDS011;53294;47.912;13.526;2023-04-25T12:39:36;2.97;;;1.20;;
66478;SDS011;53294;47.912;13.526;2023-04-25T12:42:02;2.90;;;1.55;;
66478;SDS011;53294;47.912;13.526;2023-04-25T12:44:33;1.20;;;1.10;;
66478;SDS011;53294;47.912;13.526;2023-04-25T12:47:00;2.78;;;1.67;;
66478;SDS011;53294;47.912;13.526;2023-04-25T12:49:27;2.55;;;1.50;;
66478;SDS011;53294;47.912;13.526;2023-04-25T12:51:54;2.10;;;1.40;;
66478;SDS011;53294;47.912;13.526;2023-04-25T12:54:20;2.42;;;1.48;;
66478;SDS011;53294;47.912;13.526;2023-04-25T12:56:47;2.95;;;1.70;;
66478;SDS011;53294;47.912;13.526;2023-04-25T12:59:14;2.17;;;1.30;;
66478;SDS011;53294;47.912;13.526;2023-04-25T13:01:40;2.05;;;1.40;;
66478;SDS011;53294;47.912;13.526;2023-04-25T13:04:07;2.35;;;1.30;;
66478;SDS011;53294;47.912;13.526;2023-04-25T13:06:34;2.72;;;1.70;;
66478;SDS011;53294;47.912;13.526;2023-04-25T13:09:01;2.33;;;1.38;;
66478;SDS011;53294;47.912;13.526;2023-04-25T13:11:28;2.00;;;1.35;;
66478;SDS011;53294;47.912;13.526;2023-04-25T13:13:55;2.97;;;1.50;;
66478;SDS011;53294;47.912;13.526;2023-04-25T13:16:22;2.58;;;1.50;;
66478;SDS011;53294;47.912;13.526;2023-04-25T13:18:49;3.72;;;1.52;;
66478;SDS011;53294;47.912;13.526;2023-04-25T13:21:15;2.22;;;1.40;;
66478;SDS011;53294;47.912;13.526;2023-04-25T13:23:42;3.22;;;1.50;;
66478;SDS011;53294;47.912;13.526;2023-04-25T13:26:09;3.83;;;1.58;;
66478;SDS011;53294;47.912;13.526;2023-04-25T13:28:36;2.97;;;1.30;;
66478;SDS011;53294;47.912;13.526;2023-04-25T13:31:03;5.38;;;1.30;;
66478;SDS011;53294;47.912;13.526;2023-04-25T13:33:29;3.13;;;1.98;;
66478;SDS011;53294;47.912;13.526;2023-04-25T13:35:56;1.27;;;1.17;;
66478;SDS011;53294;47.912;13.526;2023-04-25T13:38:24;2.35;;;1.20;;
66478;SDS011;53294;47.912;13.526;2023-04-25T13:40:52;2.47;;;1.35;;
66478;SDS011;53294;47.912;13.526;2023-04-25T13:43:19;2.88;;;1.30;;
66478;SDS011;53294;47.912;13.526;2023-04-25T13:45:48;3.42;;;1.40;;
66478;SDS011;53294;47.912;13.526;2023-04-25T13:48:16;2.35;;;1.38;;
66478;SDS011;53294;47.912;13.526;2023-04-25T13:50:42;2.42;;;1.20;;
66478;SDS011;53294;47.912;13.526;2023-04-25T13:53:09;3.67;;;2.00;;
66478;SDS011;53294;47.912;13.526;2023-04-25T13:55:36;5.22;;;2.20;;
66478;SDS011;53294;47.912;13.526;2023-04-25T13:58:03;4.18;;;2.10;;
66478;SDS011;53294;47.912;13.526;2023-04-25T14:00:36;3.95;;;2.47;;
66478;SDS011;53294;47.912;13.526;2023-04-25T14:03:05;3.53;;;2.22;;
66478;SDS011;53294;47.912;13.526;2023-04-25T14:05:34;4.00;;;1.95;;
66478;SDS011;53294;47.912;13.526;2023-04-25T14:08:05;2.53;;;1.80;;
66478;SDS011;53294;47.912;13.526;2023-04-25T14:10:35;3.45;;;1.60;;
66478;SDS011;53294;47.912;13.526;2023-04-25T14:13:04;2.75;;;1.90;;
66478;SDS011;53294;47.912;13.526;2023-04-25T14:15:34;3.72;;;2.00;;
66478;SDS011;53294;47.912;13.526;2023-04-25T14:18:01;2.20;;;1.63;;
66478;SDS011;53294;47.912;13.526;2023-04-25T14:20:28;2.05;;;1.52;;
66478;SDS011;53294;47.912;13.526;2023-04-25T14:22:55;2.72;;;1.58;;
66478;SDS011;53294;47.912;13.526;2023-04-25T14:25:24;3.70;;;1.70;;
66478;SDS011;53294;47.912;13.526;2023-04-25T14:27:51;2.92;;;1.85;;
66478;SDS011;53294;47.912;13.526;2023-04-25T14:30:18;2.42;;;1.60;;
66478;SDS011;53294;47.912;13.526;2023-04-25T14:32:47;3.03;;;1.60;;
66478;SDS011;53294;47.912;13.526;2023-04-25T14:35:17;3.50;;;1.70;;
66478;SDS011;53294;47.912;13.526;2023-04-25T14:37:44;3.15;;;1.63;;
66478;SDS011;53294;47.912;13.526;2023-04-25T14:40:11;2.13;;;1.60;;
66478;SDS011;53294;47.912;13.526;2023-04-25T14:42:39;3.03;;;1.70;;
66478;SDS011;53294;47.912;13.526;2023-04-25T14:45:07;3.15;;;1.63;;
66478;SDS011;53294;47.912;13.526;2023-04-25T14:47:35;3.30;;;1.75;;
66478;SDS011;53294;47.912;13.526;2023-04-25T14:50:03;3.38;;;1.88;;